JST511 YSSY-YBBN
Flight info
| Callsign | JST511 |
|---|---|
| Flight time | 1h 14m |
| Altitude | 33000 |
| Route | OLSEM Y193 BANDA H252 GOMOL |
| Aircraft | A320/M-SDE3FGHIRWY/LB1 |
Departure
| Time | 2026-04-21 01:23 |
|---|---|
| Airport | Sydney Kingsford Smith International Airport (YSSY) |
Arrival
| Time | 2026-04-21 02:37 |
|---|---|
| Airport | Brisbane International Airport (YBBN) |
| Time | Latitude | Longitude | Altitude | Speed | Heading |
|---|---|---|---|---|---|
| 2026-04-21 00:49 | -33.93411 | 151.17715 | 30 ft | 0 kts | 99° |
| 2026-04-21 01:10 | -33.93411 | 151.17709 | 30 ft | 3 kts | 99° |
| 2026-04-21 01:10 | -33.93406 | 151.17677 | 30 ft | 4 kts | 100° |
| 2026-04-21 01:10 | -33.93401 | 151.17645 | 30 ft | 4 kts | 100° |
| 2026-04-21 01:10 | -33.93397 | 151.17613 | 30 ft | 4 kts | 99° |
| 2026-04-21 01:11 | -33.93396 | 151.17607 | 30 ft | 0 kts | 99° |
| 2026-04-21 01:14 | -33.93398 | 151.17609 | 30 ft | 1 kts | 123° |
| 2026-04-21 01:14 | -33.93406 | 151.17612 | 30 ft | 2 kts | 163° |
| 2026-04-21 01:15 | -33.93426 | 151.17601 | 30 ft | 5 kts | 206° |
| 2026-04-21 01:15 | -33.93471 | 151.17584 | 30 ft | 9 kts | 180° |
| 2026-04-21 01:15 | -33.93545 | 151.17600 | 30 ft | 13 kts | 169° |
| 2026-04-21 01:15 | -33.93619 | 151.17621 | 30 ft | 10 kts | 159° |
| 2026-04-21 01:16 | -33.93691 | 151.17665 | 30 ft | 14 kts | 150° |
| 2026-04-21 01:16 | -33.93794 | 151.17702 | 30 ft | 11 kts | 167° |
| 2026-04-21 01:16 | -33.93863 | 151.17756 | 30 ft | 14 kts | 131° |
| 2026-04-21 01:16 | -33.93923 | 151.17786 | 29 ft | 3 kts | 168° |
| 2026-04-21 01:17 | -33.93961 | 151.17795 | 29 ft | 8 kts | 168° |
| 2026-04-21 01:17 | -33.94029 | 151.17812 | 29 ft | 12 kts | 168° |
| 2026-04-21 01:17 | -33.94117 | 151.17834 | 29 ft | 14 kts | 168° |
| 2026-04-21 01:17 | -33.94218 | 151.17860 | 30 ft | 15 kts | 168° |
| 2026-04-21 01:18 | -33.94321 | 151.17888 | 30 ft | 15 kts | 167° |
| 2026-04-21 01:18 | -33.94419 | 151.17914 | 30 ft | 9 kts | 172° |
| 2026-04-21 01:18 | -33.94484 | 151.17888 | 30 ft | 11 kts | 202° |
| 2026-04-21 01:18 | -33.94563 | 151.17891 | 30 ft | 12 kts | 169° |
| 2026-04-21 01:19 | -33.94649 | 151.17914 | 30 ft | 13 kts | 167° |
| 2026-04-21 01:19 | -33.94743 | 151.17941 | 30 ft | 15 kts | 167° |
| 2026-04-21 01:19 | -33.94848 | 151.17965 | 30 ft | 16 kts | 169° |
| 2026-04-21 01:19 | -33.94964 | 151.17994 | 30 ft | 18 kts | 168° |
| 2026-04-21 01:20 | -33.95044 | 151.18015 | 30 ft | 18 kts | 168° |
| 2026-04-21 01:20 | -33.95105 | 151.18048 | 30 ft | 8 kts | 115° |
| 2026-04-21 01:20 | -33.95096 | 151.18124 | 30 ft | 10 kts | 78° |
| 2026-04-21 01:20 | -33.95079 | 151.18218 | 30 ft | 12 kts | 77° |
| 2026-04-21 01:21 | -33.95058 | 151.18328 | 30 ft | 15 kts | 78° |
| 2026-04-21 01:21 | -33.95036 | 151.18456 | 30 ft | 17 kts | 78° |
| 2026-04-21 01:21 | -33.95011 | 151.18596 | 30 ft | 9 kts | 78° |
| 2026-04-21 01:21 | -33.95003 | 151.18646 | 30 ft | 7 kts | 78° |
| 2026-04-21 01:22 | -33.94991 | 151.18713 | 28 ft | 9 kts | 78° |
| 2026-04-21 01:22 | -33.94981 | 151.18812 | 25 ft | 14 kts | 103° |
| 2026-04-21 01:22 | -33.95034 | 151.18847 | 27 ft | 1 kts | 165° |
| 2026-04-21 01:22 | -33.95126 | 151.18871 | 24 ft | 43 kts | 168° |
| 2026-04-21 01:23 | -33.95643 | 151.19001 | 27 ft | 104 kts | 168° |
| 2026-04-21 01:23 | -33.96502 | 151.19227 | 28 ft | 147 kts | 168° |
| 2026-04-21 01:23 | -33.97612 | 151.19454 | 169 ft | 169 kts | 173° |
| 2026-04-21 01:23 | -33.98789 | 151.19637 | 657 ft | 173 kts | 175° |
| 2026-04-21 01:24 | -34.00003 | 151.19762 | 1182 ft | 178 kts | 175° |
| 2026-04-21 01:24 | -34.01219 | 151.19868 | 1798 ft | 175 kts | 175° |
| 2026-04-21 01:24 | -34.02439 | 151.19999 | 2299 ft | 177 kts | 174° |
| 2026-04-21 01:24 | -34.03628 | 151.20411 | 2764 ft | 188 kts | 149° |
| 2026-04-21 01:25 | -34.04567 | 151.21641 | 3119 ft | 213 kts | 130° |
| 2026-04-21 01:25 | -34.05458 | 151.23142 | 3657 ft | 224 kts | 129° |
| 2026-04-21 01:25 | -34.06360 | 151.24686 | 4373 ft | 227 kts | 128° |
| 2026-04-21 01:25 | -34.07305 | 151.26303 | 4867 ft | 246 kts | 129° |
| 2026-04-21 01:26 | -34.08312 | 151.28022 | 5545 ft | 253 kts | 128° |
| 2026-04-21 01:26 | -34.09333 | 151.29768 | 6399 ft | 256 kts | 128° |
| 2026-04-21 01:26 | -34.10366 | 151.31532 | 7232 ft | 259 kts | 128° |
| 2026-04-21 01:26 | -34.11412 | 151.33311 | 8025 ft | 262 kts | 128° |
| 2026-04-21 01:27 | -34.12243 | 151.35269 | 8740 ft | 274 kts | 109° |
| 2026-04-21 01:27 | -34.12344 | 151.37632 | 9464 ft | 287 kts | 83° |
| 2026-04-21 01:27 | -34.11586 | 151.39863 | 10198 ft | 299 kts | 57° |
| 2026-04-21 01:27 | -34.10210 | 151.41864 | 10587 ft | 317 kts | 51° |
| 2026-04-21 01:28 | -34.08718 | 151.43858 | 11195 ft | 323 kts | 50° |
| 2026-04-21 01:28 | -34.07082 | 151.45751 | 11830 ft | 330 kts | 39° |
| 2026-04-21 01:28 | -34.05090 | 151.47193 | 12352 ft | 343 kts | 26° |
| 2026-04-21 01:28 | -34.02763 | 151.48120 | 12641 ft | 360 kts | 15° |
| 2026-04-21 01:29 | -34.00319 | 151.48889 | 13217 ft | 365 kts | 15° |
| 2026-04-21 01:29 | -33.97850 | 151.49686 | 13849 ft | 370 kts | 16° |
| 2026-04-21 01:29 | -33.95357 | 151.50503 | 14455 ft | 373 kts | 16° |
| 2026-04-21 01:29 | -33.92840 | 151.51333 | 15034 ft | 377 kts | 16° |
| 2026-04-21 01:30 | -33.90304 | 151.52173 | 15607 ft | 379 kts | 16° |
| 2026-04-21 01:30 | -33.87747 | 151.53023 | 16170 ft | 383 kts | 16° |
| 2026-04-21 01:30 | -33.85167 | 151.53900 | 16749 ft | 386 kts | 17° |
| 2026-04-21 01:30 | -33.82572 | 151.54798 | 17318 ft | 389 kts | 17° |
| 2026-04-21 01:31 | -33.79958 | 151.55715 | 17888 ft | 392 kts | 17° |
| 2026-04-21 01:31 | -33.77332 | 151.56645 | 18456 ft | 395 kts | 17° |
| 2026-04-21 01:31 | -33.74680 | 151.57583 | 18968 ft | 399 kts | 17° |
| 2026-04-21 01:31 | -33.72006 | 151.58523 | 19464 ft | 402 kts | 17° |
| 2026-04-21 01:32 | -33.69307 | 151.59470 | 19960 ft | 406 kts | 17° |
| 2026-04-21 01:32 | -33.66579 | 151.60424 | 20446 ft | 410 kts | 17° |
| 2026-04-21 01:32 | -33.63822 | 151.61388 | 20920 ft | 414 kts | 17° |
| 2026-04-21 01:32 | -33.61040 | 151.62360 | 21388 ft | 419 kts | 17° |
| 2026-04-21 01:33 | -33.58231 | 151.63340 | 21862 ft | 423 kts | 17° |
| 2026-04-21 01:33 | -33.55394 | 151.64332 | 22316 ft | 427 kts | 18° |
| 2026-04-21 01:33 | -33.52532 | 151.65334 | 22761 ft | 431 kts | 18° |
| 2026-04-21 01:33 | -33.49639 | 151.66339 | 23217 ft | 434 kts | 18° |
| 2026-04-21 01:34 | -33.46716 | 151.67351 | 23665 ft | 438 kts | 18° |
| 2026-04-21 01:34 | -33.43773 | 151.68372 | 24072 ft | 442 kts | 18° |
| 2026-04-21 01:34 | -33.40841 | 151.69394 | 24440 ft | 445 kts | 18° |
| 2026-04-21 01:34 | -33.37856 | 151.70433 | 24827 ft | 448 kts | 18° |
| 2026-04-21 01:35 | -33.34856 | 151.71472 | 25209 ft | 450 kts | 18° |
| 2026-04-21 01:35 | -33.31835 | 151.72517 | 25586 ft | 453 kts | 18° |
| 2026-04-21 01:35 | -33.28800 | 151.73566 | 25963 ft | 455 kts | 18° |
| 2026-04-21 01:35 | -33.25748 | 151.74624 | 26326 ft | 457 kts | 18° |
| 2026-04-21 01:36 | -33.22687 | 151.75688 | 26689 ft | 460 kts | 18° |
| 2026-04-21 01:36 | -33.19599 | 151.76760 | 27048 ft | 462 kts | 18° |
| 2026-04-21 01:36 | -33.16502 | 151.77830 | 27397 ft | 465 kts | 17° |
| 2026-04-21 01:36 | -33.13389 | 151.78904 | 27740 ft | 467 kts | 17° |
| 2026-04-21 01:37 | -33.10259 | 151.79980 | 28081 ft | 469 kts | 17° |
| 2026-04-21 01:37 | -33.07113 | 151.81061 | 28415 ft | 471 kts | 17° |
| 2026-04-21 01:37 | -33.03950 | 151.82147 | 28759 ft | 474 kts | 17° |
| 2026-04-21 01:37 | -33.00768 | 151.83243 | 29096 ft | 476 kts | 17° |
| 2026-04-21 01:38 | -32.97579 | 151.84342 | 29438 ft | 478 kts | 17° |
| 2026-04-21 01:38 | -32.94415 | 151.85431 | 29774 ft | 481 kts | 17° |
| 2026-04-21 01:38 | -32.91194 | 151.86540 | 30106 ft | 483 kts | 17° |
| 2026-04-21 01:38 | -32.87954 | 151.87654 | 30409 ft | 485 kts | 17° |
| 2026-04-21 01:39 | -32.84699 | 151.88772 | 30668 ft | 487 kts | 17° |
| 2026-04-21 01:39 | -32.81445 | 151.89886 | 31049 ft | 487 kts | 17° |
| 2026-04-21 01:39 | -32.78185 | 151.90998 | 31439 ft | 486 kts | 17° |
| 2026-04-21 01:39 | -32.74934 | 151.92106 | 31832 ft | 485 kts | 17° |
| 2026-04-21 01:40 | -32.71695 | 151.93211 | 32223 ft | 485 kts | 17° |
| 2026-04-21 01:40 | -32.68452 | 151.94315 | 32620 ft | 484 kts | 17° |
| 2026-04-21 01:40 | -32.65215 | 151.95418 | 32998 ft | 484 kts | 17° |
| 2026-04-21 01:40 | -32.61975 | 151.96526 | 33281 ft | 485 kts | 17° |
| 2026-04-21 01:41 | -32.55521 | 151.98736 | 33338 ft | 481 kts | 17° |
| 2026-04-21 01:41 | -32.49093 | 152.00919 | 33332 ft | 480 kts | 17° |
| 2026-04-21 01:42 | -32.42668 | 152.03092 | 33332 ft | 480 kts | 17° |
| 2026-04-21 01:42 | -32.36250 | 152.05271 | 33334 ft | 479 kts | 17° |
| 2026-04-21 01:43 | -32.29837 | 152.07455 | 33332 ft | 479 kts | 17° |
| 2026-04-21 01:43 | -32.23423 | 152.09621 | 33332 ft | 479 kts | 17° |
| 2026-04-21 01:44 | -32.17050 | 152.11769 | 33330 ft | 479 kts | 17° |
| 2026-04-21 01:44 | -32.10637 | 152.13929 | 33329 ft | 479 kts | 17° |
| 2026-04-21 01:45 | -32.04222 | 152.16085 | 33332 ft | 479 kts | 17° |
| 2026-04-21 01:45 | -31.97787 | 152.18250 | 33329 ft | 480 kts | 17° |
| 2026-04-21 01:46 | -31.91400 | 152.20391 | 33322 ft | 480 kts | 17° |
| 2026-04-21 01:46 | -31.84976 | 152.22546 | 33324 ft | 480 kts | 17° |
| 2026-04-21 01:47 | -31.78549 | 152.24699 | 33327 ft | 480 kts | 17° |
| 2026-04-21 01:47 | -31.72120 | 152.26859 | 33317 ft | 480 kts | 17° |
| 2026-04-21 01:48 | -31.65688 | 152.29008 | 33315 ft | 480 kts | 17° |
| 2026-04-21 01:48 | -31.59254 | 152.31148 | 33315 ft | 480 kts | 17° |
| 2026-04-21 01:49 | -31.52824 | 152.33288 | 33313 ft | 480 kts | 17° |
| 2026-04-21 01:49 | -31.46393 | 152.35421 | 33323 ft | 480 kts | 17° |
| 2026-04-21 01:50 | -31.39963 | 152.37554 | 33322 ft | 480 kts | 17° |
| 2026-04-21 01:50 | -31.33532 | 152.39689 | 33315 ft | 480 kts | 17° |
| 2026-04-21 01:51 | -31.27139 | 152.41800 | 33303 ft | 480 kts | 17° |
| 2026-04-21 01:51 | -31.20711 | 152.43920 | 33310 ft | 480 kts | 17° |
| 2026-04-21 01:52 | -31.11066 | 152.47109 | 33304 ft | 480 kts | 17° |
| 2026-04-21 01:53 | -31.04633 | 152.49228 | 33293 ft | 480 kts | 17° |
| 2026-04-21 01:53 | -30.98200 | 152.51342 | 33293 ft | 480 kts | 17° |
| 2026-04-21 01:54 | -30.91764 | 152.53452 | 33323 ft | 480 kts | 17° |
| 2026-04-21 01:54 | -30.85319 | 152.55565 | 33295 ft | 481 kts | 17° |
| 2026-04-21 01:55 | -30.78874 | 152.57671 | 33298 ft | 481 kts | 17° |
| 2026-04-21 01:55 | -30.72461 | 152.59945 | 33304 ft | 481 kts | 19° |
| 2026-04-21 01:56 | -30.66086 | 152.62333 | 33299 ft | 481 kts | 19° |
| 2026-04-21 01:56 | -30.59745 | 152.64681 | 33288 ft | 481 kts | 18° |
| 2026-04-21 01:57 | -30.53353 | 152.66999 | 33289 ft | 481 kts | 18° |
| 2026-04-21 01:57 | -30.46948 | 152.69296 | 33297 ft | 481 kts | 18° |
| 2026-04-21 01:58 | -30.40547 | 152.71596 | 33299 ft | 481 kts | 18° |
| 2026-04-21 01:58 | -30.34147 | 152.73898 | 33294 ft | 481 kts | 18° |
| 2026-04-21 01:59 | -30.27748 | 152.76202 | 33294 ft | 481 kts | 18° |
| 2026-04-21 01:59 | -30.21387 | 152.78489 | 33286 ft | 481 kts | 18° |
| 2026-04-21 02:00 | -30.14993 | 152.80789 | 33288 ft | 481 kts | 18° |
| 2026-04-21 02:00 | -30.08587 | 152.83090 | 33307 ft | 482 kts | 18° |
| 2026-04-21 02:01 | -30.02185 | 152.85384 | 33293 ft | 482 kts | 18° |
| 2026-04-21 02:01 | -29.95780 | 152.87671 | 33284 ft | 482 kts | 18° |
| 2026-04-21 02:02 | -29.89373 | 152.89947 | 33278 ft | 482 kts | 18° |
| 2026-04-21 02:02 | -29.82955 | 152.92228 | 33273 ft | 482 kts | 18° |
| 2026-04-21 02:03 | -29.77627 | 152.94128 | 33265 ft | 482 kts | 18° |
| 2026-04-21 02:03 | -29.71215 | 152.96414 | 33272 ft | 482 kts | 18° |
| 2026-04-21 02:04 | -29.63760 | 152.99062 | 33269 ft | 482 kts | 18° |
| 2026-04-21 02:04 | -29.58423 | 153.00951 | 33272 ft | 483 kts | 18° |
| 2026-04-21 02:05 | -29.52008 | 153.03220 | 33264 ft | 483 kts | 18° |
| 2026-04-21 02:05 | -29.45579 | 153.05500 | 33268 ft | 483 kts | 18° |
| 2026-04-21 02:06 | -29.39190 | 153.07750 | 33257 ft | 483 kts | 18° |
| 2026-04-21 02:06 | -29.32766 | 153.10009 | 33261 ft | 483 kts | 18° |
| 2026-04-21 02:07 | -29.26347 | 153.12264 | 33262 ft | 483 kts | 18° |
| 2026-04-21 02:07 | -29.19925 | 153.14533 | 33269 ft | 483 kts | 18° |
| 2026-04-21 02:08 | -29.13548 | 153.16780 | 33155 ft | 471 kts | 18° |
| 2026-04-21 02:08 | -29.10439 | 153.17875 | 32817 ft | 464 kts | 18° |
| 2026-04-21 02:08 | -29.07366 | 153.18956 | 32409 ft | 460 kts | 18° |
| 2026-04-21 02:08 | -29.04310 | 153.20030 | 31986 ft | 457 kts | 18° |
| 2026-04-21 02:09 | -29.01276 | 153.21090 | 31570 ft | 455 kts | 18° |
| 2026-04-21 02:09 | -28.98253 | 153.22146 | 31159 ft | 452 kts | 18° |
| 2026-04-21 02:09 | -28.95256 | 153.23192 | 30751 ft | 450 kts | 18° |
| 2026-04-21 02:09 | -28.92312 | 153.24220 | 30362 ft | 448 kts | 18° |
| 2026-04-21 02:10 | -28.89343 | 153.25259 | 29925 ft | 445 kts | 18° |
| 2026-04-21 02:10 | -28.86390 | 153.26292 | 29519 ft | 442 kts | 18° |
| 2026-04-21 02:10 | -28.83453 | 153.27317 | 29144 ft | 439 kts | 18° |
| 2026-04-21 02:10 | -28.80544 | 153.28330 | 28777 ft | 436 kts | 18° |
| 2026-04-21 02:11 | -28.77656 | 153.29337 | 28424 ft | 432 kts | 18° |
| 2026-04-21 02:11 | -28.74790 | 153.30338 | 28087 ft | 429 kts | 18° |
| 2026-04-21 02:11 | -28.71943 | 153.31336 | 27732 ft | 426 kts | 18° |
| 2026-04-21 02:11 | -28.69112 | 153.32327 | 27377 ft | 424 kts | 18° |
| 2026-04-21 02:12 | -28.66304 | 153.33309 | 27036 ft | 421 kts | 18° |
| 2026-04-21 02:12 | -28.63515 | 153.34282 | 26691 ft | 418 kts | 18° |
| 2026-04-21 02:12 | -28.60739 | 153.35248 | 26342 ft | 415 kts | 18° |
| 2026-04-21 02:12 | -28.57986 | 153.36202 | 26003 ft | 412 kts | 18° |
| 2026-04-21 02:13 | -28.55252 | 153.37147 | 25651 ft | 409 kts | 18° |
| 2026-04-21 02:13 | -28.52531 | 153.38087 | 25288 ft | 406 kts | 18° |
| 2026-04-21 02:13 | -28.49837 | 153.39018 | 24934 ft | 403 kts | 18° |
| 2026-04-21 02:13 | -28.47167 | 153.39941 | 24572 ft | 399 kts | 18° |
| 2026-04-21 02:14 | -28.44555 | 153.40845 | 24096 ft | 396 kts | 18° |
| 2026-04-21 02:14 | -28.41926 | 153.41756 | 23584 ft | 393 kts | 18° |
| 2026-04-21 02:14 | -28.39323 | 153.42659 | 23047 ft | 389 kts | 18° |
| 2026-04-21 02:14 | -28.36744 | 153.43553 | 22551 ft | 385 kts | 18° |
| 2026-04-21 02:15 | -28.34193 | 153.44436 | 22055 ft | 381 kts | 18° |
| 2026-04-21 02:15 | -28.31671 | 153.45308 | 21566 ft | 377 kts | 18° |
| 2026-04-21 02:15 | -28.29174 | 153.46172 | 21080 ft | 373 kts | 18° |
| 2026-04-21 02:15 | -28.26703 | 153.47027 | 20592 ft | 370 kts | 18° |
| 2026-04-21 02:16 | -28.24248 | 153.47875 | 20112 ft | 367 kts | 18° |
| 2026-04-21 02:16 | -28.21820 | 153.48714 | 19646 ft | 363 kts | 19° |
| 2026-04-21 02:16 | -28.19409 | 153.49538 | 19190 ft | 361 kts | 16° |
| 2026-04-21 02:16 | -28.16942 | 153.50006 | 18734 ft | 359 kts | 4° |
| 2026-04-21 02:17 | -28.14458 | 153.49902 | 18254 ft | 356 kts | 351° |
| 2026-04-21 02:17 | -28.12085 | 153.49395 | 18036 ft | 344 kts | 349° |
| 2026-04-21 02:17 | -28.09755 | 153.48899 | 17484 ft | 339 kts | 349° |
| 2026-04-21 02:17 | -28.07447 | 153.48426 | 16938 ft | 335 kts | 350° |
| 2026-04-21 02:18 | -28.05162 | 153.47964 | 16404 ft | 332 kts | 349° |
| 2026-04-21 02:18 | -28.02899 | 153.47505 | 15904 ft | 329 kts | 349° |
| 2026-04-21 02:18 | -28.00651 | 153.47046 | 15385 ft | 326 kts | 349° |
| 2026-04-21 02:18 | -27.98425 | 153.46590 | 14880 ft | 324 kts | 349° |
| 2026-04-21 02:19 | -27.96216 | 153.46134 | 14398 ft | 321 kts | 349° |
| 2026-04-21 02:19 | -27.94024 | 153.45680 | 13882 ft | 319 kts | 349° |
| 2026-04-21 02:19 | -27.91852 | 153.45232 | 13385 ft | 315 kts | 349° |
| 2026-04-21 02:19 | -27.89703 | 153.44788 | 12830 ft | 314 kts | 349° |
| 2026-04-21 02:20 | -27.87570 | 153.44344 | 12335 ft | 310 kts | 349° |
| 2026-04-21 02:20 | -27.85450 | 153.43903 | 11812 ft | 310 kts | 349° |
| 2026-04-21 02:20 | -27.83336 | 153.43466 | 11497 ft | 306 kts | 349° |
| 2026-04-21 02:20 | -27.81272 | 153.43043 | 11109 ft | 304 kts | 349° |
| 2026-04-21 02:21 | -27.79206 | 153.42619 | 10736 ft | 300 kts | 349° |
| 2026-04-21 02:21 | -27.77157 | 153.42195 | 10321 ft | 299 kts | 349° |
| 2026-04-21 02:21 | -27.75115 | 153.41770 | 9945 ft | 298 kts | 348° |
| 2026-04-21 02:21 | -27.73081 | 153.41348 | 9624 ft | 296 kts | 349° |
| 2026-04-21 02:22 | -27.71062 | 153.40930 | 9309 ft | 294 kts | 349° |
| 2026-04-21 02:22 | -27.69047 | 153.40516 | 9022 ft | 292 kts | 349° |
| 2026-04-21 02:22 | -27.67052 | 153.40107 | 8977 ft | 293 kts | 349° |
| 2026-04-21 02:22 | -27.65005 | 153.39689 | 8866 ft | 300 kts | 349° |
| 2026-04-21 02:23 | -27.62950 | 153.39266 | 8492 ft | 300 kts | 349° |
| 2026-04-21 02:23 | -27.60896 | 153.38821 | 8145 ft | 299 kts | 348° |
| 2026-04-21 02:23 | -27.58885 | 153.38370 | 7837 ft | 298 kts | 348° |
| 2026-04-21 02:23 | -27.56857 | 153.37912 | 7530 ft | 296 kts | 348° |
| 2026-04-21 02:24 | -27.54843 | 153.37458 | 7232 ft | 294 kts | 348° |
| 2026-04-21 02:24 | -27.52839 | 153.37007 | 6923 ft | 293 kts | 348° |
| 2026-04-21 02:24 | -27.50852 | 153.36563 | 6637 ft | 291 kts | 348° |
| 2026-04-21 02:24 | -27.48869 | 153.36122 | 6297 ft | 290 kts | 348° |
| 2026-04-21 02:25 | -27.46892 | 153.35683 | 5968 ft | 289 kts | 348° |
| 2026-04-21 02:25 | -27.44923 | 153.35246 | 5636 ft | 288 kts | 348° |
| 2026-04-21 02:25 | -27.42959 | 153.34809 | 5301 ft | 287 kts | 349° |
| 2026-04-21 02:25 | -27.40996 | 153.34375 | 4978 ft | 287 kts | 349° |
| 2026-04-21 02:26 | -27.39057 | 153.33946 | 4822 ft | 280 kts | 349° |
| 2026-04-21 02:26 | -27.37176 | 153.33529 | 4693 ft | 271 kts | 349° |
| 2026-04-21 02:26 | -27.35352 | 153.33125 | 4565 ft | 263 kts | 349° |
| 2026-04-21 02:26 | -27.33584 | 153.32765 | 4437 ft | 254 kts | 351° |
| 2026-04-21 02:27 | -27.31873 | 153.32440 | 4271 ft | 246 kts | 351° |
| 2026-04-21 02:27 | -27.30214 | 153.32131 | 4142 ft | 237 kts | 351° |
| 2026-04-21 02:27 | -27.28702 | 153.31529 | 4036 ft | 227 kts | 325° |
| 2026-04-21 02:27 | -27.27576 | 153.30337 | 3939 ft | 222 kts | 300° |
| 2026-04-21 02:28 | -27.26967 | 153.28787 | 3709 ft | 212 kts | 275° |
| 2026-04-21 02:28 | -27.26724 | 153.27161 | 3441 ft | 210 kts | 269° |
| 2026-04-21 02:28 | -27.26791 | 153.25582 | 3172 ft | 202 kts | 253° |
| 2026-04-21 02:28 | -27.27030 | 153.24033 | 2992 ft | 205 kts | 268° |
| 2026-04-21 02:29 | -27.26663 | 153.22467 | 2994 ft | 212 kts | 288° |
| 2026-04-21 02:29 | -27.26103 | 153.20953 | 3302 ft | 213 kts | 293° |
| 2026-04-21 02:29 | -27.25310 | 153.19483 | 3199 ft | 223 kts | 301° |
| 2026-04-21 02:29 | -27.24426 | 153.18067 | 3024 ft | 219 kts | 302° |
| 2026-04-21 02:30 | -27.23469 | 153.16745 | 2966 ft | 220 kts | 320° |
| 2026-04-21 02:30 | -27.22146 | 153.15873 | 2991 ft | 221 kts | 334° |
| 2026-04-21 02:30 | -27.20744 | 153.15160 | 2983 ft | 221 kts | 336° |
| 2026-04-21 02:30 | -27.19254 | 153.14794 | 2978 ft | 219 kts | 5° |
| 2026-04-21 02:31 | -27.17813 | 153.15242 | 2980 ft | 214 kts | 36° |
| 2026-04-21 02:31 | -27.16768 | 153.16364 | 2983 ft | 206 kts | 64° |
| 2026-04-21 02:31 | -27.16307 | 153.17837 | 2981 ft | 198 kts | 91° |
| 2026-04-21 02:31 | -27.16460 | 153.19331 | 2982 ft | 190 kts | 115° |
| 2026-04-21 02:32 | -27.17151 | 153.20543 | 2987 ft | 181 kts | 141° |
| 2026-04-21 02:32 | -27.18163 | 153.21215 | 2997 ft | 161 kts | 163° |
| 2026-04-21 02:32 | -27.19219 | 153.21342 | 2974 ft | 148 kts | 185° |
| 2026-04-21 02:32 | -27.20187 | 153.21023 | 2973 ft | 144 kts | 202° |
| 2026-04-21 02:33 | -27.21066 | 153.20521 | 2977 ft | 140 kts | 202° |
| 2026-04-21 02:33 | -27.21935 | 153.20026 | 2917 ft | 139 kts | 202° |
| 2026-04-21 02:33 | -27.22799 | 153.19534 | 2783 ft | 138 kts | 202° |
| 2026-04-21 02:33 | -27.23643 | 153.19053 | 2626 ft | 138 kts | 202° |
| 2026-04-21 02:34 | -27.24500 | 153.18565 | 2455 ft | 138 kts | 202° |
| 2026-04-21 02:34 | -27.25358 | 153.18076 | 2279 ft | 138 kts | 202° |
| 2026-04-21 02:34 | -27.26209 | 153.17590 | 2102 ft | 136 kts | 203° |
| 2026-04-21 02:34 | -27.27058 | 153.17106 | 1920 ft | 136 kts | 203° |
| 2026-04-21 02:35 | -27.27896 | 153.16628 | 1726 ft | 135 kts | 202° |
| 2026-04-21 02:35 | -27.28733 | 153.16150 | 1551 ft | 134 kts | 204° |
| 2026-04-21 02:35 | -27.29578 | 153.15669 | 1365 ft | 137 kts | 203° |
| 2026-04-21 02:35 | -27.30424 | 153.15186 | 1190 ft | 135 kts | 203° |
| 2026-04-21 02:36 | -27.31265 | 153.14705 | 1008 ft | 137 kts | 203° |
| 2026-04-21 02:36 | -27.32115 | 153.14220 | 835 ft | 135 kts | 204° |
| 2026-04-21 02:36 | -27.32951 | 153.13743 | 659 ft | 136 kts | 203° |
| 2026-04-21 02:36 | -27.33809 | 153.13253 | 463 ft | 141 kts | 201° |
| 2026-04-21 02:37 | -27.34690 | 153.12749 | 287 ft | 143 kts | 205° |
| 2026-04-21 02:37 | -27.35572 | 153.12224 | 98 ft | 144 kts | 204° |
| 2026-04-21 02:37 | -27.36430 | 153.11765 | 21 ft | 121 kts | 205° |
| 2026-04-21 02:37 | -27.36200 | 153.11881 | 27 ft | 0 kts | 204° |
| 2026-04-21 02:38 | -27.36201 | 153.11881 | 26 ft | 2 kts | 204° |
| 2026-04-21 02:38 | -27.36230 | 153.11866 | 25 ft | 8 kts | 204° |
| 2026-04-21 02:38 | -27.36296 | 153.11832 | 22 ft | 13 kts | 204° |
| 2026-04-21 02:38 | -27.36398 | 153.11781 | 23 ft | 19 kts | 205° |
| 2026-04-21 02:39 | -27.36535 | 153.11703 | 20 ft | 21 kts | 206° |
| 2026-04-21 02:39 | -27.36662 | 153.11627 | 22 ft | 23 kts | 207° |
| 2026-04-21 02:39 | -27.36831 | 153.11582 | 20 ft | 27 kts | 181° |
| 2026-04-21 02:39 | -27.36944 | 153.11586 | 21 ft | 8 kts | 178° |
| 2026-04-21 02:40 | -27.36946 | 153.11586 | 21 ft | 0 kts | 178° |
| 2026-04-21 02:42 | -27.36952 | 153.11587 | 21 ft | 3 kts | 178° |
| 2026-04-21 02:42 | -27.36987 | 153.11588 | 21 ft | 8 kts | 178° |
| 2026-04-21 02:42 | -27.37053 | 153.11613 | 22 ft | 13 kts | 139° |
| 2026-04-21 02:43 | -27.37123 | 153.11682 | 22 ft | 14 kts | 188° |
| 2026-04-21 02:43 | -27.37203 | 153.11639 | 22 ft | 11 kts | 207° |
| 2026-04-21 02:43 | -27.37291 | 153.11607 | 22 ft | 16 kts | 172° |
| 2026-04-21 02:43 | -27.37367 | 153.11708 | 23 ft | 7 kts | 118° |
| 2026-04-21 02:44 | -27.37400 | 153.11776 | 22 ft | 13 kts | 118° |
| 2026-04-21 02:44 | -27.37452 | 153.11888 | 22 ft | 19 kts | 116° |
| 2026-04-21 02:44 | -27.37519 | 153.12038 | 23 ft | 23 kts | 116° |
| 2026-04-21 02:44 | -27.37534 | 153.12072 | 22 ft | 6 kts | 116° |
| 2026-04-21 02:45 | -27.37561 | 153.12133 | 22 ft | 12 kts | 116° |
| 2026-04-21 02:45 | -27.37606 | 153.12235 | 22 ft | 17 kts | 116° |
| 2026-04-21 02:45 | -27.37669 | 153.12376 | 22 ft | 23 kts | 116° |
| 2026-04-21 02:45 | -27.37722 | 153.12482 | 22 ft | 13 kts | 119° |
| 2026-04-21 02:46 | -27.37753 | 153.12544 | 22 ft | 10 kts | 119° |
| 2026-04-21 02:46 | -27.37796 | 153.12637 | 22 ft | 16 kts | 114° |
| 2026-04-21 02:46 | -27.37817 | 153.12692 | 22 ft | 9 kts | 114° |
| 2026-04-21 02:46 | -27.37879 | 153.12724 | 22 ft | 14 kts | 200° |
| 2026-04-21 02:47 | -27.37956 | 153.12683 | 23 ft | 1 kts | 206° |
| 2026-04-21 02:47 | -27.37977 | 153.12671 | 22 ft | 6 kts | 206° |
| 2026-04-21 02:47 | -27.38033 | 153.12640 | 22 ft | 12 kts | 206° |
| 2026-04-21 02:47 | -27.38098 | 153.12603 | 22 ft | 6 kts | 206° |
| 2026-04-21 02:48 | -27.38155 | 153.12571 | 22 ft | 12 kts | 206° |
| 2026-04-21 02:48 | -27.38193 | 153.12550 | 22 ft | 1 kts | 206° |
| 2026-04-21 02:48 | -27.38200 | 153.12546 | 23 ft | 0 kts | 206° |
| 2026-04-21 02:48 | -27.38201 | 153.12545 | 23 ft | 0 kts | 206° |
| 2026-04-21 02:49 | -27.38208 | 153.12541 | 22 ft | 4 kts | 206° |
| 2026-04-21 02:49 | -27.38239 | 153.12524 | 22 ft | 0 kts | 206° |
| 2026-04-21 02:49 | -27.38256 | 153.12512 | 22 ft | 6 kts | 220° |
| 2026-04-21 02:49 | -27.38282 | 153.12500 | 22 ft | 5 kts | 146° |
| 2026-04-21 02:50 | -27.38322 | 153.12545 | 22 ft | 11 kts | 132° |
| 2026-04-21 02:50 | -27.38405 | 153.12530 | 23 ft | 16 kts | 208° |
| 2026-04-21 02:50 | -27.38521 | 153.12460 | 22 ft | 22 kts | 207° |
| 2026-04-21 02:50 | -27.38644 | 153.12393 | 22 ft | 13 kts | 206° |
| 2026-04-21 02:51 | -27.38675 | 153.12375 | 23 ft | 3 kts | 215° |
| 2026-04-21 02:51 | -27.38679 | 153.12339 | 22 ft | 7 kts | 281° |
| 2026-04-21 02:51 | -27.38632 | 153.12305 | 22 ft | 10 kts | 319° |
| 2026-04-21 02:51 | -27.38616 | 153.12268 | 22 ft | 3 kts | 296° |
| 2026-04-21 02:52 | -27.38612 | 153.12257 | 22 ft | 0 kts | 294° |